createdAt,value
2018-09-06T05:55:54.692Z,96396.30
2018-09-06T05:59:19.441Z,96393.69
2018-09-06T06:02:44.333Z,96390.98
2018-09-06T06:06:10.264Z,96389.31
2018-09-06T06:09:34.942Z,96388.41
2018-09-06T06:13:01.072Z,96390.55
2018-09-06T06:16:25.886Z,96392.41
2018-09-06T06:19:50.753Z,96393.30
2018-09-06T06:23:15.503Z,96392.72
2018-09-06T06:26:40.795Z,96390.44
2018-09-06T06:30:20.524Z,96390.46
2018-09-06T06:33:48.035Z,96390.97
2018-09-06T06:37:12.685Z,96381.67
2018-09-06T06:40:38.676Z,96391.20
2018-09-06T06:44:03.516Z,96387.41
2018-09-06T06:47:29.054Z,96389.67
2018-09-06T06:50:54.067Z,96401.53
2018-09-06T06:54:20.116Z,96398.33
2018-09-06T06:57:45.523Z,96395.47
2018-09-06T07:01:10.440Z,96392.48
2018-09-06T07:04:35.305Z,96393.03
2018-09-06T07:07:59.995Z,96390.48
2018-09-06T07:11:25.481Z,96389.33
2018-09-06T07:14:50.822Z,96390.19
2018-09-06T07:18:15.723Z,96392.83
2018-09-06T07:21:40.671Z,96393.36
2018-09-06T07:25:05.457Z,96401.78
2018-09-06T07:28:30.293Z,96397.03
2018-09-06T07:31:55.456Z,96389.00
2018-09-06T07:35:20.300Z,96389.03
2018-09-06T07:38:45.173Z,96387.13
2018-09-06T07:42:10.278Z,96389.17
2018-09-06T07:45:36.178Z,96389.86
2018-09-06T07:49:01.099Z,96384.46
2018-09-06T07:52:26.168Z,96392.19
2018-09-06T07:56:10.477Z,96388.29
2018-09-06T07:59:36.080Z,96389.22
2018-09-06T08:03:00.849Z,96380.80
2018-09-06T08:06:25.916Z,96384.62
2018-09-06T08:09:50.576Z,96385.16
2018-09-06T08:13:15.437Z,96389.84
2018-09-06T08:16:41.514Z,96389.80
2018-09-06T08:20:06.701Z,96398.51
2018-09-06T08:23:34.067Z,96405.08
2018-09-06T08:26:59.074Z,96401.50
2018-09-06T08:30:27.030Z,96403.91
2018-09-06T08:33:52.957Z,96398.99
2018-09-06T08:37:17.763Z,96401.19
2018-09-06T08:40:44.217Z,96401.30
2018-09-06T08:44:09.354Z,96403.16
2018-09-06T08:47:34.226Z,96398.38
2018-09-06T08:50:59.112Z,96392.11
2018-09-06T08:54:24.012Z,96392.33
2018-09-06T08:57:48.888Z,96393.14
2018-09-06T09:01:19.166Z,96385.77
2018-09-06T09:04:44.040Z,96396.33
2018-09-06T09:08:08.828Z,96392.20
2018-09-06T09:11:33.631Z,96402.03
2018-09-06T09:14:58.506Z,96397.48
2018-09-06T09:18:23.340Z,96396.52
2018-09-06T09:21:48.161Z,96403.23
2018-09-06T09:25:12.902Z,96404.22
2018-09-06T09:28:37.696Z,96402.45
2018-09-06T09:32:02.577Z,96391.88
2018-09-06T09:35:27.510Z,96400.56
2018-09-06T09:38:52.233Z,96395.63
2018-09-06T09:42:17.085Z,96395.94
2018-09-06T09:45:41.761Z,96392.47
2018-09-06T09:49:06.517Z,96392.75
2018-09-06T09:52:31.207Z,96393.88
2018-09-06T09:55:57.115Z,96395.97
2018-09-06T09:59:21.863Z,96386.05
2018-09-06T10:07:20.680Z,96379.64
2018-09-06T10:10:45.423Z,96378.13
2018-09-06T10:14:10.224Z,96373.39
2018-09-06T10:17:35.044Z,96373.44
2018-09-06T10:20:59.962Z,96368.09
2018-09-06T10:24:24.764Z,96368.24
2018-09-06T10:27:49.517Z,96369.39
2018-09-06T10:31:14.448Z,96362.72
2018-09-06T10:34:39.245Z,96355.52
2018-09-06T10:38:04.144Z,96359.70
2018-09-06T10:41:28.921Z,96351.78
2018-09-06T10:44:53.741Z,96349.72
2018-09-06T10:48:18.591Z,96346.33
2018-09-06T10:51:43.287Z,96346.20
2018-09-06T10:55:08.099Z,96340.09
2018-09-06T10:58:32.886Z,96339.45
2018-09-06T11:01:57.641Z,96336.70
2018-09-06T11:05:22.405Z,96334.58
2018-09-06T11:08:47.138Z,96327.41
2018-09-06T11:12:11.862Z,96333.84
2018-09-06T11:15:36.627Z,96328.16
2018-09-06T11:19:02.131Z,96330.06
2018-09-06T11:22:27.024Z,96331.82
2018-09-06T11:25:51.535Z,96333.39
2018-09-06T11:29:16.220Z,96347.66
2018-09-06T11:32:41.109Z,96349.44
2018-09-06T11:36:06.077Z,96343.23
2018-09-06T11:39:30.954Z,96338.05
2018-09-06T11:42:55.666Z,96341.09
2018-09-06T11:46:20.402Z,96340.68
2018-09-06T11:49:45.359Z,96341.41
2018-09-06T11:53:10.619Z,96326.54
2018-09-06T11:56:36.438Z,96328.30
2018-09-06T12:00:02.492Z,96327.55
2018-09-06T12:03:28.222Z,96330.62
2018-09-06T12:06:53.124Z,96322.88
2018-09-06T12:10:18.206Z,96319.81
2018-09-06T12:13:43.964Z,96318.40
2018-09-06T12:17:08.712Z,96309.16
2018-09-06T12:20:33.409Z,96300.91
2018-09-06T12:23:58.495Z,96306.41
2018-09-06T12:27:23.356Z,96297.22
2018-09-06T12:30:48.244Z,96297.92
2018-09-06T12:34:13.155Z,96287.66
2018-09-06T12:37:38.896Z,96288.80
2018-09-06T12:41:03.682Z,96271.16
2018-09-06T12:44:28.542Z,96274.05
2018-09-06T12:47:53.472Z,96276.47
2018-09-06T12:51:18.239Z,96276.30
2018-09-06T13:02:41.935Z,96269.45
2018-09-06T13:06:07.009Z,96261.88
2018-09-06T13:09:31.815Z,96261.83
2018-09-06T13:12:56.552Z,96261.12
2018-09-06T13:16:21.316Z,96259.88
2018-09-06T13:19:46.118Z,96250.66
2018-09-06T13:23:10.980Z,96258.09
2018-09-06T13:26:35.685Z,96250.30
2018-09-06T13:30:00.367Z,96249.92
2018-09-06T13:33:25.028Z,96252.94
2018-09-06T13:36:49.727Z,96251.01
2018-09-06T13:40:14.469Z,96243.61
2018-09-06T13:43:39.133Z,96246.55
2018-09-06T13:48:28.224Z,96239.09
2018-09-06T13:51:52.894Z,96235.36
2018-09-06T13:55:17.555Z,96231.88
2018-09-06T13:58:43.410Z,96219.38
2018-09-06T14:02:12.197Z,96222.02
2018-09-06T14:05:38.388Z,96219.38
2018-09-06T14:09:04.670Z,96200.53
2018-09-06T14:12:30.424Z,96199.53
2018-09-06T14:15:56.292Z,96205.95
2018-09-06T14:19:21.933Z,96203.84
2018-09-06T14:22:47.381Z,96204.29
2018-09-06T14:26:16.119Z,96201.34
2018-09-06T14:29:41.658Z,96199.20
2018-09-06T14:33:09.933Z,96188.67
2018-09-06T14:36:35.256Z,96181.80
2018-09-06T14:40:02.165Z,96181.02
2018-09-06T14:43:27.325Z,96176.02
2018-09-06T14:46:52.537Z,96190.30
2018-09-06T14:50:17.752Z,96178.97
2018-09-06T14:53:42.793Z,96179.12
2018-09-06T14:57:10.434Z,96190.09
2018-09-06T15:00:35.753Z,96189.76
2018-09-06T15:04:00.939Z,96183.61
2018-09-06T15:07:26.237Z,96180.27
2018-09-06T15:10:51.451Z,96183.72
2018-09-06T15:14:16.676Z,96181.96
2018-09-06T15:17:41.720Z,96186.42
2018-09-06T15:21:06.972Z,96180.27
2018-09-06T15:24:32.096Z,96180.16
2018-09-06T15:27:57.368Z,96179.31
2018-09-06T15:31:22.735Z,96174.67
2018-09-06T15:34:48.097Z,96166.80
2018-09-06T15:38:13.537Z,96172.06
2018-09-06T15:41:39.095Z,96171.52
2018-09-06T15:45:04.148Z,96163.37
2018-09-06T15:48:28.877Z,96160.73
2018-09-06T15:51:53.546Z,96155.48
2018-09-06T15:55:18.283Z,96149.02
2018-09-06T15:58:42.915Z,96149.70
2018-09-06T16:02:07.660Z,96155.30
2018-09-06T16:05:32.514Z,96145.78
2018-09-06T16:08:57.233Z,96139.36
2018-09-06T16:12:21.959Z,96134.98
2018-09-06T16:15:46.609Z,96146.27
2018-09-06T16:19:11.369Z,96146.08
2018-09-06T16:22:36.117Z,96146.33
2018-09-06T16:26:01.118Z,96158.38
2018-09-06T16:29:25.870Z,96159.37
2018-09-06T16:32:50.571Z,96155.92
2018-09-06T16:36:15.338Z,96154.23
2018-09-06T16:39:40.238Z,96161.48
2018-09-06T16:43:07.013Z,96148.61
2018-09-06T16:46:31.673Z,96161.33
2018-09-06T16:49:56.579Z,96159.69
2018-09-06T16:53:21.280Z,96156.75
2018-09-06T16:56:46.234Z,96162.65
2018-09-06T17:00:11.157Z,96169.20
2018-09-06T17:03:35.870Z,96178.28
2018-09-06T17:07:00.868Z,96181.41
2018-09-06T17:10:25.593Z,96182.91
2018-09-06T17:13:50.391Z,96190.86
2018-09-06T17:17:16.441Z,96195.02
2018-09-06T17:20:41.173Z,96194.50
2018-09-06T17:24:05.919Z,96196.79
2018-09-06T17:27:31.209Z,96201.98
2018-09-06T17:30:56.196Z,96199.61
2018-09-06T17:34:21.593Z,96214.20
2018-09-06T17:37:47.003Z,96218.86
2018-09-06T17:41:13.534Z,96222.50
2018-09-06T17:46:02.736Z,96208.14
2018-09-06T17:49:27.488Z,96225.68
2018-09-06T17:52:52.228Z,96213.58
2018-09-06T17:56:17.128Z,96222.44
2018-09-06T17:59:42.326Z,96229.37
2018-09-06T18:03:07.103Z,96226.85
2018-09-06T18:06:32.128Z,96231.97
2018-09-06T18:09:56.900Z,96231.97
2018-09-06T18:13:21.687Z,96237.28
2018-09-06T18:16:46.446Z,96246.40
2018-09-06T18:20:11.926Z,96246.38
2018-09-06T18:23:37.503Z,96245.84
2018-09-06T18:27:02.377Z,96251.96
2018-09-06T18:30:29.590Z,96257.50
2018-09-06T18:33:56.080Z,96259.67
2018-09-06T18:37:20.922Z,96265.11
2018-09-06T18:40:45.853Z,96265.70
2018-09-06T18:44:10.566Z,96270.10
2018-09-06T18:47:36.343Z,96273.83
2018-09-06T18:51:01.353Z,96276.78
2018-09-06T18:54:26.236Z,96274.39
2018-09-06T18:57:51.266Z,96281.36
2018-09-06T19:01:16.098Z,96289.19
2018-09-06T19:04:40.784Z,96294.52
2018-09-06T19:08:05.802Z,96297.44
2018-09-06T19:11:32.005Z,96302.98
2018-09-06T19:14:57.540Z,96306.33
2018-09-06T19:18:24.117Z,96305.94
2018-09-06T19:21:49.101Z,96309.06
2018-09-06T19:25:14.100Z,96317.70
2018-09-06T19:28:39.407Z,96321.89
2018-09-06T19:32:05.120Z,96328.98
2018-09-06T19:35:30.892Z,96335.43
2018-09-06T19:38:55.960Z,96335.43
2018-09-06T19:42:21.800Z,96337.95
2018-09-06T19:45:46.545Z,96341.20
2018-09-06T19:49:11.371Z,96345.28
2018-09-06T19:52:36.220Z,96338.34
2018-09-06T19:56:00.958Z,96340.13
2018-09-06T19:59:25.740Z,96342.05
2018-09-06T20:02:50.503Z,96341.59
2018-09-06T20:06:15.411Z,96345.53
2018-09-06T20:09:40.237Z,96344.67
2018-09-06T20:13:05.025Z,96340.02
2018-09-06T20:16:29.928Z,96344.28
2018-09-06T20:19:54.844Z,96341.86
2018-09-06T20:23:19.663Z,96343.47
2018-09-06T20:26:44.440Z,96342.55
2018-09-06T20:30:09.203Z,96337.78
2018-09-06T20:33:34.042Z,96338.84
2018-09-06T20:36:58.736Z,96338.73
2018-09-06T20:40:23.441Z,96342.05
2018-09-06T20:47:20.752Z,96347.40
2018-09-06T20:50:45.522Z,96348.39
2018-09-06T20:54:10.337Z,96345.06
2018-09-06T20:57:35.258Z,96345.95
2018-09-06T21:00:59.956Z,96349.39
2018-09-06T21:04:24.695Z,96349.70
2018-09-06T21:07:49.400Z,96347.92
2018-09-06T21:11:14.088Z,96352.59
2018-09-06T21:14:38.869Z,96355.91
2018-09-06T21:18:03.529Z,96354.33
2018-09-06T21:21:28.194Z,96349.05
2018-09-06T21:24:52.910Z,96346.70
2018-09-06T21:28:17.611Z,96354.33
2018-09-06T21:31:42.291Z,96355.13
2018-09-06T21:35:07.042Z,96352.39
2018-09-06T21:38:31.703Z,96357.64
2018-09-06T21:41:56.466Z,96352.60
2018-09-06T21:45:21.201Z,96361.52
2018-09-06T21:48:45.887Z,96353.45
2018-09-06T21:52:10.532Z,96356.73
2018-09-06T21:55:35.354Z,96363.51
2018-09-06T21:59:00.000Z,96361.78
2018-09-06T22:02:30.009Z,96365.03
2018-09-06T22:05:54.732Z,96368.11
2018-09-06T22:09:19.516Z,96374.34
2018-09-06T22:12:44.165Z,96372.97
2018-09-06T22:16:08.856Z,96377.58
2018-09-06T22:19:33.563Z,96375.77
2018-09-06T22:22:58.224Z,96385.30
2018-09-06T22:26:23.007Z,96383.27
2018-09-06T22:29:47.606Z,96381.25
2018-09-06T22:33:12.262Z,96383.25
2018-09-06T22:36:37.790Z,96385.59
2018-09-06T22:40:02.477Z,96380.73
2018-09-06T22:43:27.114Z,96386.62
2018-09-06T22:46:53.662Z,96377.00
2018-09-06T22:50:18.582Z,96382.27
2018-09-06T22:53:43.218Z,96377.98
2018-09-06T22:57:07.933Z,96377.36
2018-09-06T23:00:32.745Z,96379.63
2018-09-06T23:03:57.386Z,96383.03
2018-09-06T23:07:22.193Z,96381.34
2018-09-06T23:10:46.841Z,96388.07
2018-09-06T23:14:11.487Z,96386.43
2018-09-06T23:17:36.147Z,96382.02
2018-09-06T23:21:00.750Z,96386.30
2018-09-06T23:24:25.387Z,96386.43
2018-09-06T23:27:50.068Z,96385.02
2018-09-06T23:31:14.733Z,96383.27
2018-09-06T23:34:39.390Z,96382.29
2018-09-06T23:38:04.016Z,96386.44
2018-09-06T23:41:28.651Z,96384.77
2018-09-06T23:52:52.925Z,96388.17
2018-09-06T23:56:17.630Z,96389.80
2018-09-06T23:59:42.249Z,96386.30
